Comfort, Texas
Current Conditions -  °F | °C
As of 2:35 PM on Monday 22 Dec 2014 (Local Time) from KERV Reporting Station
Clear Clear  
Wind Chill: 76°   Ceiling: Unl
Heat Index: 77°   Visibility: 10mi
Dew Point: 34°   Wind: 12mph
Humidity: 22%   Direction: 310°NW
Pressure: 29.64"   Gusts: NA
Location:  29.97°N, 98.91°W
Report Text: KERV 222035Z AUTO 31010KT 10SM CLR 25/01 A2964 RMK AO2 T02470013
Loading
Personal Weather Stations






























Interactive Weather Map New forecast layout! Learn more

10-Day Weather Forecast

Advertisements
Track Severe Weather on mobile